sensor_id;sensor_type;location;lat;lon;timestamp;pressure;altitude;pressure_sealevel;temperature;humidity
31585;BME280;18191;51.288;12.390;2023-04-06T00:03:45;49010.81;;;-144.47;71.97
31585;BME280;18191;51.288;12.390;2023-04-06T00:08:35;48945.19;;;-144.47;71.11
31585;BME280;18191;51.288;12.390;2023-04-06T00:13:25;48973.03;;;-144.47;71.79
31585;BME280;18191;51.288;12.390;2023-04-06T00:18:17;48965.06;;;-144.47;71.47
31585;BME280;18191;51.288;12.390;2023-04-06T00:23:07;48957.13;;;-144.47;73.43
31585;BME280;18191;51.288;12.390;2023-04-06T00:27:57;48969.06;;;-144.47;72.89
31585;BME280;18191;51.288;12.390;2023-04-06T00:32:47;48945.19;;;-144.47;72.21
31585;BME280;18191;51.288;12.390;2023-04-06T00:37:37;48965.06;;;-144.47;71.53
31585;BME280;18191;51.288;12.390;2023-04-06T00:42:28;48992.94;;;-144.47;72.67
31585;BME280;18191;51.288;12.390;2023-04-06T00:47:18;48953.13;;;-144.47;72.03
31585;BME280;18191;51.288;12.390;2023-04-06T00:52:08;49000.88;;;-144.47;71.26
31585;BME280;18191;51.288;12.390;2023-04-06T00:56:59;48973.03;;;-144.47;70.75
31585;BME280;18191;51.288;12.390;2023-04-06T01:01:49;49008.84;;;-144.47;69.53
31585;BME280;18191;51.288;12.390;2023-04-06T01:06:40;48971.03;;;-144.47;69.18
31585;BME280;18191;51.288;12.390;2023-04-06T01:11:30;48965.06;;;-144.47;69.30
31585;BME280;18191;51.288;12.390;2023-04-06T01:16:21;48965.06;;;-144.47;68.94
31585;BME280;18191;51.288;12.390;2023-04-06T01:21:11;48984.97;;;-144.47;68.69
31585;BME280;18191;51.288;12.390;2023-04-06T01:26:05;48996.91;;;-144.47;69.07
31585;BME280;18191;51.288;12.390;2023-04-06T01:30:55;48969.06;;;-144.47;68.98
31585;BME280;18191;51.288;12.390;2023-04-06T01:35:45;48965.06;;;-144.47;69.93
31585;BME280;18191;51.288;12.390;2023-04-06T01:40:36;48981.00;;;-144.47;69.11
31585;BME280;18191;51.288;12.390;2023-04-06T01:45:26;49000.88;;;-144.47;68.56
31585;BME280;18191;51.288;12.390;2023-04-06T01:50:16;48996.91;;;-144.47;68.79
31585;BME280;18191;51.288;12.390;2023-04-06T01:55:09;48979.00;;;-144.47;68.32
31585;BME280;18191;51.288;12.390;2023-04-06T01:59:59;48955.13;;;-144.47;67.98
31585;BME280;18191;51.288;12.390;2023-04-06T02:04:50;48977.00;;;-144.47;69.20
31585;BME280;18191;51.288;12.390;2023-04-06T02:09:40;48996.91;;;-144.47;69.21
31585;BME280;18191;51.288;12.390;2023-04-06T02:14:30;48971.03;;;-144.47;70.29
31585;BME280;18191;51.288;12.390;2023-04-06T02:19:21;48981.00;;;-144.47;70.34
31585;BME280;18191;51.288;12.390;2023-04-06T02:24:11;49016.78;;;-144.47;70.46
31585;BME280;18191;51.288;12.390;2023-04-06T02:29:01;48975.03;;;-144.47;70.13
31585;BME280;18191;51.288;12.390;2023-04-06T02:33:52;48967.06;;;-144.47;69.96
31585;BME280;18191;51.288;12.390;2023-04-06T02:38:42;48973.03;;;-144.47;70.09
31585;BME280;18191;51.288;12.390;2023-04-06T02:43:32;48977.00;;;-144.47;70.55
31585;BME280;18191;51.288;12.390;2023-04-06T02:48:22;48992.94;;;-144.47;71.03
31585;BME280;18191;51.288;12.390;2023-04-06T02:53:13;48981.00;;;-144.47;71.25
31585;BME280;18191;51.288;12.390;2023-04-06T02:58:03;48963.09;;;-144.47;70.89
31585;BME280;18191;51.288;12.390;2023-04-06T03:02:53;48977.00;;;-144.47;71.87
31585;BME280;18191;51.288;12.390;2023-04-06T03:07:43;49010.81;;;-144.47;71.32
31585;BME280;18191;51.288;12.390;2023-04-06T03:12:33;48965.06;;;-144.47;71.67
31585;BME280;18191;51.288;12.390;2023-04-06T03:17:23;48977.00;;;-144.47;72.48
31585;BME280;18191;51.288;12.390;2023-04-06T03:22:14;49036.69;;;-144.47;72.75
31585;BME280;18191;51.288;12.390;2023-04-06T03:27:04;48953.13;;;-144.47;72.51
31585;BME280;18191;51.288;12.390;2023-04-06T03:31:54;48982.97;;;-144.47;72.87
31585;BME280;18191;51.288;12.390;2023-04-06T03:36:44;48990.94;;;-144.47;73.07
31585;BME280;18191;51.288;12.390;2023-04-06T03:41:35;48981.00;;;-144.47;73.77
31585;BME280;18191;51.288;12.390;2023-04-06T03:46:25;49000.88;;;-144.47;74.29
31585;BME280;18191;51.288;12.390;2023-04-06T03:51:16;48992.94;;;-144.47;74.38
31585;BME280;18191;51.288;12.390;2023-04-06T03:56:06;48979.00;;;-144.47;75.35
31585;BME280;18191;51.288;12.390;2023-04-06T04:00:56;48969.06;;;-144.47;75.52
31585;BME280;18191;51.288;12.390;2023-04-06T04:05:46;48957.13;;;-144.47;75.48
31585;BME280;18191;51.288;12.390;2023-04-06T04:10:36;48981.00;;;-144.47;75.86
31585;BME280;18191;51.288;12.390;2023-04-06T04:15:27;48996.91;;;-144.47;76.77
31585;BME280;18191;51.288;12.390;2023-04-06T04:20:17;48953.13;;;-144.47;77.11
31585;BME280;18191;51.288;12.390;2023-04-06T04:25:07;48965.06;;;-144.47;77.34
31585;BME280;18191;51.288;12.390;2023-04-06T04:29:58;48951.16;;;-144.47;77.43
31585;BME280;18191;51.288;12.390;2023-04-06T04:34:48;48945.19;;;-144.47;78.33
31585;BME280;18191;51.288;12.390;2023-04-06T04:39:38;48981.00;;;-144.47;78.16
31585;BME280;18191;51.288;12.390;2023-04-06T04:44:28;49014.81;;;-144.47;77.96
31585;BME280;18191;51.288;12.390;2023-04-06T04:49:20;48937.22;;;-144.47;77.52
31585;BME280;18191;51.288;12.390;2023-04-06T04:54:10;48998.91;;;-144.47;77.68
31585;BME280;18191;51.288;12.390;2023-04-06T04:59:00;48957.13;;;-144.47;77.48
31585;BME280;18191;51.288;12.390;2023-04-06T05:03:50;48961.09;;;-144.47;77.44
31585;BME280;18191;51.288;12.390;2023-04-06T05:08:41;48979.00;;;-144.47;77.16
31585;BME280;18191;51.288;12.390;2023-04-06T05:13:32;48965.06;;;-144.47;76.79
31585;BME280;18191;51.288;12.390;2023-04-06T05:18:22;48984.97;;;-144.47;76.47
31585;BME280;18191;51.288;12.390;2023-04-06T05:23:12;48969.06;;;-144.47;76.06
31585;BME280;18191;51.288;12.390;2023-04-06T05:28:02;48959.09;;;-144.47;74.43
31585;BME280;18191;51.288;12.390;2023-04-06T05:32:53;48981.00;;;-144.47;73.74
31585;BME280;18191;51.288;12.390;2023-04-06T05:37:43;49000.88;;;-144.47;73.57
31585;BME280;18191;51.288;12.390;2023-04-06T05:42:36;48981.00;;;-144.47;72.60
31585;BME280;18191;51.288;12.390;2023-04-06T05:47:28;49000.88;;;-144.47;71.53
31585;BME280;18191;51.288;12.390;2023-04-06T05:52:18;48988.94;;;-144.47;71.31
31585;BME280;18191;51.288;12.390;2023-04-06T05:57:08;48981.00;;;-144.47;71.21
31585;BME280;18191;51.288;12.390;2023-04-06T06:01:58;48975.03;;;-144.47;70.65
31585;BME280;18191;51.288;12.390;2023-04-06T06:06:51;48986.97;;;-144.47;70.15
31585;BME280;18191;51.288;12.390;2023-04-06T06:11:41;48996.91;;;-144.47;69.67
31585;BME280;18191;51.288;12.390;2023-04-06T06:16:32;48953.13;;;-144.47;68.94
31585;BME280;18191;51.288;12.390;2023-04-06T06:21:22;48998.91;;;-144.47;67.45
31585;BME280;18191;51.288;12.390;2023-04-06T06:26:12;48937.22;;;-144.47;66.59
31585;BME280;18191;51.288;12.390;2023-04-06T06:31:02;48957.13;;;-144.47;65.23
31585;BME280;18191;51.288;12.390;2023-04-06T06:35:52;48953.13;;;-144.47;61.88
31585;BME280;18191;51.288;12.390;2023-04-06T06:40:43;48961.09;;;-144.47;60.25
31585;BME280;18191;51.288;12.390;2023-04-06T06:45:33;48937.22;;;-144.47;58.05
31585;BME280;18191;51.288;12.390;2023-04-06T06:50:23;48965.06;;;-144.47;56.53
31585;BME280;18191;51.288;12.390;2023-04-06T06:55:13;48988.94;;;-144.47;53.98
31585;BME280;18191;51.288;12.390;2023-04-06T07:00:04;48984.97;;;-144.47;52.24
31585;BME280;18191;51.288;12.390;2023-04-06T07:04:55;48919.31;;;-144.47;53.47
31585;BME280;18191;51.288;12.390;2023-04-06T07:09:45;48945.19;;;-144.47;53.39
31585;BME280;18191;51.288;12.390;2023-04-06T07:14:35;48963.09;;;-144.47;51.63
31585;BME280;18191;51.288;12.390;2023-04-06T07:19:26;48941.19;;;-144.47;49.70
31585;BME280;18191;51.288;12.390;2023-04-06T07:24:16;48951.16;;;-144.47;46.67
31585;BME280;18191;51.288;12.390;2023-04-06T07:29:07;48961.09;;;-144.47;45.81
31585;BME280;18191;51.288;12.390;2023-04-06T07:33:57;48929.28;;;-144.47;44.45
31585;BME280;18191;51.288;12.390;2023-04-06T07:38:47;48921.31;;;-144.47;44.89
31585;BME280;18191;51.288;12.390;2023-04-06T07:43:38;48963.09;;;-144.47;43.25
31585;BME280;18191;51.288;12.390;2023-04-06T07:48:29;48949.16;;;-144.47;43.63
31585;BME280;18191;51.288;12.390;2023-04-06T07:53:19;48949.16;;;-144.47;44.37
31585;BME280;18191;51.288;12.390;2023-04-06T07:58:09;48921.31;;;-144.47;42.49
31585;BME280;18191;51.288;12.390;2023-04-06T08:02:59;48951.16;;;-144.47;43.71
31585;BME280;18191;51.288;12.390;2023-04-06T08:07:49;48933.25;;;-144.47;43.58
31585;BME280;18191;51.288;12.390;2023-04-06T08:12:41;48913.34;;;-144.47;43.22
31585;BME280;18191;51.288;12.390;2023-04-06T08:17:31;48959.09;;;-144.47;43.06
31585;BME280;18191;51.288;12.390;2023-04-06T08:22:22;48965.06;;;-144.47;42.52
31585;BME280;18191;51.288;12.390;2023-04-06T08:27:12;48941.19;;;-144.47;41.42
31585;BME280;18191;51.288;12.390;2023-04-06T08:32:04;48967.06;;;-144.47;41.29
31585;BME280;18191;51.288;12.390;2023-04-06T08:36:55;48903.41;;;-144.47;40.93
31585;BME280;18191;51.288;12.390;2023-04-06T08:41:45;48941.19;;;-144.47;40.02
31585;BME280;18191;51.288;12.390;2023-04-06T08:46:36;48945.19;;;-144.47;39.74
31585;BME280;18191;51.288;12.390;2023-04-06T08:51:26;48945.19;;;-144.47;40.33
31585;BME280;18191;51.288;12.390;2023-04-06T08:56:17;48913.34;;;-144.47;38.64
31585;BME280;18191;51.288;12.390;2023-04-06T09:01:08;48889.50;;;-144.47;37.60
31585;BME280;18191;51.288;12.390;2023-04-06T09:06:01;48913.34;;;-144.47;37.75
31585;BME280;18191;51.288;12.390;2023-04-06T09:10:52;48957.13;;;-144.47;37.79
31585;BME280;18191;51.288;12.390;2023-04-06T09:15:42;48889.50;;;-144.47;37.01
31585;BME280;18191;51.288;12.390;2023-04-06T09:20:33;48909.38;;;-144.47;36.77
31585;BME280;18191;51.288;12.390;2023-04-06T09:25:24;48885.50;;;-144.47;36.87
31585;BME280;18191;51.288;12.390;2023-04-06T09:30:16;48893.47;;;-144.47;35.66
31585;BME280;18191;51.288;12.390;2023-04-06T09:35:10;48945.19;;;-144.47;34.96
31585;BME280;18191;51.288;12.390;2023-04-06T09:40:06;48919.31;;;-144.47;34.66
31585;BME280;18191;51.288;12.390;2023-04-06T09:44:57;48855.66;;;-144.47;33.43
31585;BME280;18191;51.288;12.390;2023-04-06T09:49:47;48939.22;;;-144.47;33.09
31585;BME280;18191;51.288;12.390;2023-04-06T09:54:37;48881.53;;;-144.47;31.89
31585;BME280;18191;51.288;12.390;2023-04-06T09:59:40;48893.47;;;-144.47;31.75
31585;BME280;18191;51.288;12.390;2023-04-06T10:04:37;48881.53;;;-144.47;32.93
31585;BME280;18191;51.288;12.390;2023-04-06T10:09:30;48881.53;;;-144.47;30.57
31585;BME280;18191;51.288;12.390;2023-04-06T10:14:25;48881.53;;;-144.47;31.10
31585;BME280;18191;51.288;12.390;2023-04-06T10:19:22;48871.59;;;-144.47;30.64
31585;BME280;18191;51.288;12.390;2023-04-06T10:24:15;48855.66;;;-144.47;28.68
31585;BME280;18191;51.288;12.390;2023-04-06T10:29:07;48881.53;;;-144.47;30.38
31585;BME280;18191;51.288;12.390;2023-04-06T10:34:00;48901.41;;;-144.47;30.04
31585;BME280;18191;51.288;12.390;2023-04-06T10:38:56;48881.53;;;-144.47;29.29
31585;BME280;18191;51.288;12.390;2023-04-06T10:43:54;48897.44;;;-144.47;29.87
31585;BME280;18191;51.288;12.390;2023-04-06T10:48:45;48925.28;;;-144.47;31.38
31585;BME280;18191;51.288;12.390;2023-04-06T10:53:36;48859.66;;;-144.47;31.21
31585;BME280;18191;51.288;12.390;2023-04-06T10:58:26;48845.72;;;-144.47;29.30
31585;BME280;18191;51.288;12.390;2023-04-06T11:03:17;48915.34;;;-144.47;31.26
31585;BME280;18191;51.288;12.390;2023-04-06T11:08:07;48869.59;;;-144.47;30.72
31585;BME280;18191;51.288;12.390;2023-04-06T11:12:57;48877.56;;;-144.47;30.74
31585;BME280;18191;51.288;12.390;2023-04-06T11:17:48;48873.56;;;-144.47;30.23
31585;BME280;18191;51.288;12.390;2023-04-06T11:22:51;48873.56;;;-144.47;30.18
31585;BME280;18191;51.288;12.390;2023-04-06T11:27:42;48907.38;;;-144.47;29.59
31585;BME280;18191;51.288;12.390;2023-04-06T11:32:39;48879.53;;;-144.47;29.46
31585;BME280;18191;51.288;12.390;2023-04-06T11:37:30;48869.59;;;-144.47;29.79
31585;BME280;18191;51.288;12.390;2023-04-06T11:42:26;48885.50;;;-144.47;29.22
31585;BME280;18191;51.288;12.390;2023-04-06T11:47:17;48869.59;;;-144.47;29.18
31585;BME280;18191;51.288;12.390;2023-04-06T11:52:22;48865.63;;;-144.47;29.28
31585;BME280;18191;51.288;12.390;2023-04-06T11:57:12;48873.56;;;-144.47;29.47
31585;BME280;18191;51.288;12.390;2023-04-06T12:02:03;48841.75;;;-144.47;28.52
31585;BME280;18191;51.288;12.390;2023-04-06T12:06:54;48887.50;;;-144.47;29.19
31585;BME280;18191;51.288;12.390;2023-04-06T12:11:44;48853.69;;;-144.47;28.21
31585;BME280;18191;51.288;12.390;2023-04-06T12:16:35;48865.63;;;-144.47;29.79
31585;BME280;18191;51.288;12.390;2023-04-06T12:21:26;48889.50;;;-144.47;30.51
31585;BME280;18191;51.288;12.390;2023-04-06T12:26:17;48853.69;;;-144.47;29.48
31585;BME280;18191;51.288;12.390;2023-04-06T12:31:07;48861.63;;;-144.47;28.18
31585;BME280;18191;51.288;12.390;2023-04-06T12:35:57;48857.66;;;-144.47;28.37
31585;BME280;18191;51.288;12.390;2023-04-06T12:40:47;48921.31;;;-144.47;26.94
31585;BME280;18191;51.288;12.390;2023-04-06T12:45:38;48873.56;;;-144.47;28.37
31585;BME280;18191;51.288;12.390;2023-04-06T12:50:28;48841.75;;;-144.47;28.46
31585;BME280;18191;51.288;12.390;2023-04-06T12:55:18;48883.53;;;-144.47;29.61
31585;BME280;18191;51.288;12.390;2023-04-06T13:00:09;48861.63;;;-144.47;28.49
31585;BME280;18191;51.288;12.390;2023-04-06T13:04:59;48865.63;;;-144.47;28.96
31585;BME280;18191;51.288;12.390;2023-04-06T13:09:49;48873.56;;;-144.47;29.29
31585;BME280;18191;51.288;12.390;2023-04-06T13:14:40;48857.66;;;-144.47;29.16
31585;BME280;18191;51.288;12.390;2023-04-06T13:19:31;48893.47;;;-144.47;28.08
31585;BME280;18191;51.288;12.390;2023-04-06T13:24:21;48849.69;;;-144.47;27.71
31585;BME280;18191;51.288;12.390;2023-04-06T13:29:12;48883.53;;;-144.47;29.38
31585;BME280;18191;51.288;12.390;2023-04-06T13:34:03;48885.50;;;-144.47;28.90
31585;BME280;18191;51.288;12.390;2023-04-06T13:38:53;48905.41;;;-144.47;29.29
31585;BME280;18191;51.288;12.390;2023-04-06T13:43:45;48893.47;;;-144.47;28.45
31585;BME280;18191;51.288;12.390;2023-04-06T13:48:35;48903.41;;;-144.47;28.41
31585;BME280;18191;51.288;12.390;2023-04-06T13:53:25;48865.63;;;-144.47;28.64
31585;BME280;18191;51.288;12.390;2023-04-06T13:58:15;48889.50;;;-144.47;28.55
31585;BME280;18191;51.288;12.390;2023-04-06T14:03:05;48861.63;;;-144.47;29.05
31585;BME280;18191;51.288;12.390;2023-04-06T14:07:56;48901.41;;;-144.47;28.94
31585;BME280;18191;51.288;12.390;2023-04-06T14:12:46;48853.69;;;-144.47;27.44
31585;BME280;18191;51.288;12.390;2023-04-06T14:17:36;48877.56;;;-144.47;27.35
31585;BME280;18191;51.288;12.390;2023-04-06T14:22:27;48863.63;;;-144.47;29.91
31585;BME280;18191;51.288;12.390;2023-04-06T14:27:17;48869.59;;;-144.47;28.79
31585;BME280;18191;51.288;12.390;2023-04-06T14:32:07;48881.53;;;-144.47;29.61
31585;BME280;18191;51.288;12.390;2023-04-06T14:36:57;48857.66;;;-144.47;29.66
31585;BME280;18191;51.288;12.390;2023-04-06T14:41:48;48861.63;;;-144.47;28.81
31585;BME280;18191;51.288;12.390;2023-04-06T14:46:38;48845.72;;;-144.47;28.45
31585;BME280;18191;51.288;12.390;2023-04-06T14:51:28;48881.53;;;-144.47;28.03
31585;BME280;18191;51.288;12.390;2023-04-06T14:56:22;48853.69;;;-144.47;29.51
31585;BME280;18191;51.288;12.390;2023-04-06T15:01:13;48869.59;;;-144.47;28.56
31585;BME280;18191;51.288;12.390;2023-04-06T15:06:03;48845.72;;;-144.47;27.55
31585;BME280;18191;51.288;12.390;2023-04-06T15:10:53;48813.91;;;-144.47;29.23
31585;BME280;18191;51.288;12.390;2023-04-06T15:15:45;48857.66;;;-144.47;27.40
31585;BME280;18191;51.288;12.390;2023-04-06T15:20:36;48885.50;;;-144.47;28.21
31585;BME280;18191;51.288;12.390;2023-04-06T15:25:26;48861.63;;;-144.47;27.93
31585;BME280;18191;51.288;12.390;2023-04-06T15:30:16;48885.50;;;-144.47;28.06
31585;BME280;18191;51.288;12.390;2023-04-06T15:35:10;48861.63;;;-144.47;29.79
31585;BME280;18191;51.288;12.390;2023-04-06T15:40:00;48871.59;;;-144.47;27.84
31585;BME280;18191;51.288;12.390;2023-04-06T15:44:50;48905.41;;;-144.47;29.07
31585;BME280;18191;51.288;12.390;2023-04-06T15:49:40;48855.66;;;-144.47;28.15
31585;BME280;18191;51.288;12.390;2023-04-06T15:54:31;48871.59;;;-144.47;29.72
31585;BME280;18191;51.288;12.390;2023-04-06T15:59:22;48861.63;;;-144.47;28.92
31585;BME280;18191;51.288;12.390;2023-04-06T16:04:12;48877.56;;;-144.47;27.44
31585;BME280;18191;51.288;12.390;2023-04-06T16:09:03;48857.66;;;-144.47;27.93
31585;BME280;18191;51.288;12.390;2023-04-06T16:13:53;48829.81;;;-144.47;28.91
31585;BME280;18191;51.288;12.390;2023-04-06T16:18:43;48881.53;;;-144.47;29.91
31585;BME280;18191;51.288;12.390;2023-04-06T16:23:34;48849.69;;;-144.47;28.74
31585;BME280;18191;51.288;12.390;2023-04-06T16:28:24;48839.75;;;-144.47;28.41
31585;BME280;18191;51.288;12.390;2023-04-06T16:33:15;48849.69;;;-144.47;28.12
31585;BME280;18191;51.288;12.390;2023-04-06T16:38:07;48873.56;;;-144.47;29.57
31585;BME280;18191;51.288;12.390;2023-04-06T16:42:57;48881.53;;;-144.47;29.15
31585;BME280;18191;51.288;12.390;2023-04-06T16:47:48;48881.53;;;-144.47;30.10
31585;BME280;18191;51.288;12.390;2023-04-06T16:52:39;48897.44;;;-144.47;30.14
31585;BME280;18191;51.288;12.390;2023-04-06T16:57:30;48859.66;;;-144.47;31.74
31585;BME280;18191;51.288;12.390;2023-04-06T17:02:21;48857.66;;;-144.47;32.86
31585;BME280;18191;51.288;12.390;2023-04-06T17:07:13;48861.63;;;-144.47;32.42
31585;BME280;18191;51.288;12.390;2023-04-06T17:12:03;48867.59;;;-144.47;32.88
31585;BME280;18191;51.288;12.390;2023-04-06T17:16:54;48863.63;;;-144.47;32.91
31585;BME280;18191;51.288;12.390;2023-04-06T17:21:44;48909.38;;;-144.47;32.93
31585;BME280;18191;51.288;12.390;2023-04-06T17:26:34;48855.66;;;-144.47;33.44
31585;BME280;18191;51.288;12.390;2023-04-06T17:31:25;48877.56;;;-144.47;34.64
31585;BME280;18191;51.288;12.390;2023-04-06T17:36:16;48869.59;;;-144.47;34.92
31585;BME280;18191;51.288;12.390;2023-04-06T17:41:06;48869.59;;;-144.47;36.13
31585;BME280;18191;51.288;12.390;2023-04-06T17:45:56;48929.28;;;-144.47;36.41
31585;BME280;18191;51.288;12.390;2023-04-06T17:50:46;48879.53;;;-144.47;36.90
31585;BME280;18191;51.288;12.390;2023-04-06T17:55:37;48881.53;;;-144.47;36.98
31585;BME280;18191;51.288;12.390;2023-04-06T18:00:27;48893.47;;;-144.47;37.19
31585;BME280;18191;51.288;12.390;2023-04-06T18:05:18;48913.34;;;-144.47;37.67
31585;BME280;18191;51.288;12.390;2023-04-06T18:10:08;48925.28;;;-144.47;38.81
31585;BME280;18191;51.288;12.390;2023-04-06T18:14:59;48925.28;;;-144.47;39.03
31585;BME280;18191;51.288;12.390;2023-04-06T18:19:49;48877.56;;;-144.47;39.23
31585;BME280;18191;51.288;12.390;2023-04-06T18:24:39;48933.25;;;-144.47;40.27
31585;BME280;18191;51.288;12.390;2023-04-06T18:29:31;48921.31;;;-144.47;40.82
31585;BME280;18191;51.288;12.390;2023-04-06T18:34:21;48915.34;;;-144.47;41.50
31585;BME280;18191;51.288;12.390;2023-04-06T18:39:12;48941.19;;;-144.47;40.48
31585;BME280;18191;51.288;12.390;2023-04-06T18:44:02;48945.19;;;-144.47;40.31
31585;BME280;18191;51.288;12.390;2023-04-06T18:48:52;48905.41;;;-144.47;41.53
31585;BME280;18191;51.288;12.390;2023-04-06T18:53:42;48905.41;;;-144.47;42.72
31585;BME280;18191;51.288;12.390;2023-04-06T18:58:32;48913.34;;;-144.47;42.54
31585;BME280;18191;51.288;12.390;2023-04-06T19:03:23;48917.34;;;-144.47;42.90
31585;BME280;18191;51.288;12.390;2023-04-06T19:08:13;48937.22;;;-144.47;44.08
31585;BME280;18191;51.288;12.390;2023-04-06T19:13:03;48941.19;;;-144.47;45.90
31585;BME280;18191;51.288;12.390;2023-04-06T19:17:54;48893.47;;;-144.47;46.59
31585;BME280;18191;51.288;12.390;2023-04-06T19:22:44;48917.34;;;-144.47;44.48
31585;BME280;18191;51.288;12.390;2023-04-06T19:27:34;48913.34;;;-144.47;47.56
31585;BME280;18191;51.288;12.390;2023-04-06T19:32:24;48905.41;;;-144.47;46.57
31585;BME280;18191;51.288;12.390;2023-04-06T19:37:15;48949.16;;;-144.47;46.16
31585;BME280;18191;51.288;12.390;2023-04-06T19:42:05;48941.19;;;-144.47;48.60
31585;BME280;18191;51.288;12.390;2023-04-06T19:46:55;48923.31;;;-144.47;49.49
31585;BME280;18191;51.288;12.390;2023-04-06T19:51:56;48961.09;;;-144.47;48.63
31585;BME280;18191;51.288;12.390;2023-04-06T19:56:47;48939.22;;;-144.47;49.59
31585;BME280;18191;51.288;12.390;2023-04-06T20:01:37;48953.13;;;-144.47;47.53
31585;BME280;18191;51.288;12.390;2023-04-06T20:06:28;48953.13;;;-144.47;48.31
31585;BME280;18191;51.288;12.390;2023-04-06T20:11:18;48941.19;;;-144.47;48.17
31585;BME280;18191;51.288;12.390;2023-04-06T20:16:08;48933.25;;;-144.47;48.03
31585;BME280;18191;51.288;12.390;2023-04-06T20:20:59;48909.38;;;-144.47;49.31
31585;BME280;18191;51.288;12.390;2023-04-06T20:25:49;48919.31;;;-144.47;47.56
31585;BME280;18191;51.288;12.390;2023-04-06T20:30:39;48963.09;;;-144.47;47.30
31585;BME280;18191;51.288;12.390;2023-04-06T20:35:29;48925.28;;;-144.47;47.35
31585;BME280;18191;51.288;12.390;2023-04-06T20:40:21;48913.34;;;-144.47;47.99
31585;BME280;18191;51.288;12.390;2023-04-06T20:45:12;48905.41;;;-144.47;47.89
31585;BME280;18191;51.288;12.390;2023-04-06T20:50:02;48937.22;;;-144.47;48.32
31585;BME280;18191;51.288;12.390;2023-04-06T20:54:52;48929.28;;;-144.47;50.33
31585;BME280;18191;51.288;12.390;2023-04-06T20:59:43;48897.44;;;-144.47;48.03
31585;BME280;18191;51.288;12.390;2023-04-06T21:04:36;48953.13;;;-144.47;48.89
31585;BME280;18191;51.288;12.390;2023-04-06T21:09:27;48933.25;;;-144.47;48.72
31585;BME280;18191;51.288;12.390;2023-04-06T21:14:17;48925.28;;;-144.47;48.96
31585;BME280;18191;51.288;12.390;2023-04-06T21:19:07;48919.31;;;-144.47;49.93
31585;BME280;18191;51.288;12.390;2023-04-06T21:23:57;48927.28;;;-144.47;48.97
31585;BME280;18191;51.288;12.390;2023-04-06T21:28:49;48927.28;;;-144.47;48.25
31585;BME280;18191;51.288;12.390;2023-04-06T21:33:39;48921.31;;;-144.47;48.13
31585;BME280;18191;51.288;12.390;2023-04-06T21:38:29;48981.00;;;-144.47;47.59
31585;BME280;18191;51.288;12.390;2023-04-06T21:43:19;48961.09;;;-144.47;48.93
31585;BME280;18191;51.288;12.390;2023-04-06T21:48:09;48919.31;;;-144.47;48.16
31585;BME280;18191;51.288;12.390;2023-04-06T21:53:00;48981.00;;;-144.47;48.97
31585;BME280;18191;51.288;12.390;2023-04-06T21:57:50;48945.19;;;-144.47;49.59
31585;BME280;18191;51.288;12.390;2023-04-06T22:02:40;48973.03;;;-144.47;49.51
31585;BME280;18191;51.288;12.390;2023-04-06T22:07:30;48889.50;;;-144.47;49.86
31585;BME280;18191;51.288;12.390;2023-04-06T22:12:20;48923.31;;;-144.47;49.84
31585;BME280;18191;51.288;12.390;2023-04-06T22:17:11;48921.31;;;-144.47;50.12
31585;BME280;18191;51.288;12.390;2023-04-06T22:22:01;48927.28;;;-144.47;51.73
31585;BME280;18191;51.288;12.390;2023-04-06T22:26:51;48923.31;;;-144.47;53.34
31585;BME280;18191;51.288;12.390;2023-04-06T22:31:41;48917.34;;;-144.47;54.16
31585;BME280;18191;51.288;12.390;2023-04-06T22:36:32;48921.31;;;-144.47;55.64
31585;BME280;18191;51.288;12.390;2023-04-06T22:41:22;48913.34;;;-144.47;58.46
31585;BME280;18191;51.288;12.390;2023-04-06T22:46:12;48913.34;;;-144.47;59.14
31585;BME280;18191;51.288;12.390;2023-04-06T22:51:02;48949.16;;;-144.47;58.80
31585;BME280;18191;51.288;12.390;2023-04-06T22:55:52;48953.13;;;-144.47;58.73
31585;BME280;18191;51.288;12.390;2023-04-06T23:00:43;48929.28;;;-144.47;60.80
31585;BME280;18191;51.288;12.390;2023-04-06T23:05:33;48941.19;;;-144.47;60.80
31585;BME280;18191;51.288;12.390;2023-04-06T23:10:23;48917.34;;;-144.47;62.39
31585;BME280;18191;51.288;12.390;2023-04-06T23:15:13;48959.09;;;-144.47;62.11
31585;BME280;18191;51.288;12.390;2023-04-06T23:20:04;48943.19;;;-144.47;62.39
31585;BME280;18191;51.288;12.390;2023-04-06T23:24:54;48949.16;;;-144.47;61.69
31585;BME280;18191;51.288;12.390;2023-04-06T23:29:45;48917.34;;;-144.47;61.85
31585;BME280;18191;51.288;12.390;2023-04-06T23:34:37;48911.38;;;-144.47;60.88
31585;BME280;18191;51.288;12.390;2023-04-06T23:39:27;48925.28;;;-144.47;62.52
31585;BME280;18191;51.288;12.390;2023-04-06T23:44:18;48929.28;;;-144.47;61.11
31585;BME280;18191;51.288;12.390;2023-04-06T23:49:08;48895.44;;;-144.47;60.53
31585;BME280;18191;51.288;12.390;2023-04-06T23:53:58;48923.31;;;-144.47;60.24
31585;BME280;18191;51.288;12.390;2023-04-06T23:58:48;48919.31;;;-144.47;58.53
